Time;durP1;ratioP1;P1;durP2;ratioP2;P2;SDS_P1;SDS_P2;PMS_P1;PMS_P2;Temp;Humidity;BMP_temperature;BMP_pressure;BME280_temperature;BME280_humidity;BME280_pressure;Samples;Min_cycle;Max_cycle;Signal;HPM_P1;HPM_P2
2023/12/19 00:01:00;;;;;;;;;;;;;;;1.54;97.25;101883.78;4916885;29;20051;-69
2023/12/19 00:04:03;;;;;;;8.30;6.38;;;;;;;1.53;97.09;101881.19;4916453;29;20425;-69
2023/12/19 00:07:06;;;;;;;13.63;9.45;;;;;;;1.60;97.06;101876.09;4916808;29;20047;-69
2023/12/19 00:10:09;;;;;;;8.43;7.07;;;;;;;1.65;96.92;101862.34;4920270;29;20048;-69
2023/12/19 00:13:13;;;;;;;8.50;6.60;;;;;;;1.58;97.04;101859.75;4920208;29;20046;-69
2023/12/19 00:16:16;;;;;;;;;;;;;;;1.54;97.56;101854.56;4920530;29;20466;-69
2023/12/19 00:19:20;;;;;;;9.00;6.45;;;;;;;1.48;98.03;101851.94;4920088;29;19930;-69
2023/12/19 00:22:24;;;;;;;12.35;6.63;;;;;;;1.59;97.28;101866.59;4920344;29;20059;-69
2023/12/19 00:25:29;;;;;;;8.48;6.03;;;;;;;1.55;97.81;101876.91;4919986;29;20051;-66
2023/12/19 00:28:33;;;;;;;14.38;10.27;;;;;;;1.39;97.95;101878.50;4919792;29;20131;-67
2023/12/19 00:31:36;;;;;;;10.93;7.32;;;;;;;1.21;99.68;101888.66;4920155;29;20405;-69
2023/12/19 00:34:39;;;;;;;41.40;27.58;;;;;;;1.39;98.93;101879.38;4919808;29;20524;-69
2023/12/19 00:37:43;;;;;;;19.92;13.93;;;;;;;1.36;98.21;101878.50;4919820;29;20038;-69
2023/12/19 00:40:46;;;;;;;;;;;;;;;1.44;97.76;101869.13;4920154;29;20074;-69
2023/12/19 00:43:49;;;;;;;10.63;7.65;;;;;;;1.35;98.12;101867.31;4919322;29;19929;-69
2023/12/19 00:46:52;;;;;;;9.70;6.13;;;;;;;1.28;98.41;101872.44;4919530;29;20135;-69
2023/12/19 00:49:55;;;;;;;8.93;6.57;;;;;;;1.22;98.60;101878.41;4919566;29;20107;-69
2023/12/19 00:52:59;;;;;;;;;;;;;;;1.29;98.32;101879.31;4919931;29;20090;-69
2023/12/19 00:56:07;;;;;;;9.13;6.72;;;;;;;1.06;99.09;101894.56;4919722;29;19922;-69
2023/12/19 00:59:10;;;;;;;9.75;7.80;;;;;;;1.19;98.29;101880.94;4919552;29;20046;-69
2023/12/19 01:02:13;;;;;;;8.60;7.13;;;;;;;1.24;98.29;101860.34;4919334;29;20047;-67
2023/12/19 01:05:16;;;;;;;9.32;7.15;;;;;;;1.05;99.39;101867.94;4919310;29;20516;-66
2023/12/19 01:08:20;;;;;;;10.10;7.43;;;;;;;1.11;99.69;101862.81;4919181;29;20104;-66
2023/12/19 01:11:23;;;;;;;12.23;8.05;;;;;;;1.07;99.89;101878.25;4919198;29;20414;-67
2023/12/19 01:15:16;;;;;;;11.70;8.50;;;;;;;1.10;100.00;101884.31;4919084;29;20080;-67
2023/12/19 01:18:19;;;;;;;12.70;8.32;;;;;;;1.20;99.28;101881.81;4918194;29;20067;-68
2023/12/19 01:21:22;;;;;;;11.55;8.32;;;;;;;1.32;98.85;101869.88;4919053;29;20051;-68
2023/12/19 01:24:26;;;;;;;10.98;7.78;;;;;;;1.27;98.98;101848.34;4919152;29;20558;-68
2023/12/19 01:27:29;;;;;;;10.93;8.45;;;;;;;1.53;98.56;101861.44;4918809;29;20545;-68
2023/12/19 01:30:33;;;;;;;11.95;9.10;;;;;;;1.57;98.59;101864.91;4918693;29;20562;-69
2023/12/19 01:33:36;;;;;;;14.52;12.10;;;;;;;1.73;98.73;101858.13;4918737;29;20055;-69
2023/12/19 01:36:41;;;;;;;15.55;10.55;;;;;;;1.92;98.15;101848.75;4918690;29;20051;-68
2023/12/19 01:39:44;;;;;;;16.92;13.18;;;;;;;1.88;99.13;101840.13;4918613;29;20099;-68
2023/12/19 01:42:47;;;;;;;13.63;11.07;;;;;;;1.98;99.01;101853.91;4918014;29;20066;-68
2023/12/19 01:45:51;;;;;;;;;;;;;;;1.93;99.08;101835.84;4917910;29;20043;-68
2023/12/19 01:48:54;;;;;;;16.80;13.30;;;;;;;2.05;98.57;101846.22;4918759;29;19921;-68
2023/12/19 01:51:58;;;;;;;16.98;13.90;;;;;;;2.05;98.70;101846.22;4918473;29;20145;-68
2023/12/19 01:55:02;;;;;;;19.02;15.05;;;;;;;2.20;97.15;101840.28;4918279;29;20051;-68
2023/12/19 01:58:06;;;;;;;21.15;16.13;;;;;;;2.28;97.59;101853.19;4918218;29;20099;-68
2023/12/19 02:01:11;;;;;;;22.90;16.90;;;;;;;2.33;96.54;101851.50;4918265;29;20074;-68
2023/12/19 02:04:14;;;;;;;18.85;15.85;;;;;;;2.35;96.30;101852.34;4918203;29;20047;-68
2023/12/19 02:07:17;;;;;;;19.98;15.60;;;;;;;2.37;96.05;101848.06;4918094;29;20050;-68
2023/12/19 02:10:23;;;;;;;18.40;14.95;;;;;;;2.38;96.50;101839.44;4917241;29;20063;-68
2023/12/19 02:13:27;;;;;;;19.48;15.57;;;;;;;2.48;96.04;101837.75;4918065;29;20086;-68
2023/12/19 02:16:31;;;;;;;18.02;14.07;;;;;;;2.64;94.86;101830.88;4918049;29;20107;-68
2023/12/19 02:19:48;;;;;;;20.17;15.82;;;;;;;2.49;95.21;101835.19;4917924;29;20462;-68
2023/12/19 02:22:52;;;;;;;21.55;15.65;;;;;;;2.49;95.22;101839.47;4918153;29;20066;-68
2023/12/19 02:25:55;;;;;;;19.10;15.02;;;;;;;2.61;95.21;101838.63;4917746;29;20047;-68
2023/12/19 02:28:59;;;;;;;18.10;15.55;;;;;;;2.67;96.49;101820.56;4917677;29;20055;-68
2023/12/19 02:32:02;;;;;;;21.77;16.15;;;;;;;2.74;95.87;101804.22;4916695;29;20043;-68
2023/12/19 02:35:06;;;;;;;;;;;;;;;2.70;95.90;101800.75;4918112;29;20670;-68
2023/12/19 02:38:09;;;;;;;17.02;14.10;;;;;;;2.85;94.97;101780.97;4917878;29;19921;-68
2023/12/19 02:41:12;;;;;;;22.88;15.32;;;;;;;2.81;94.75;101769.78;4917537;29;20070;-68
2023/12/19 02:44:15;;;;;;;;;;;;;;;2.76;95.05;101784.41;4917826;29;20152;-69
2023/12/19 02:47:18;;;;;;;18.58;14.80;;;;;;;2.85;95.25;101788.72;4917381;29;19969;-69
2023/12/19 02:50:25;;;;;;;;;;;;;;;2.83;94.35;101774.94;4917830;29;20047;-68
2023/12/19 02:57:59;;;;;;;20.33;14.55;;;;;;;2.63;94.90;101756.88;4917282;29;20099;-68
2023/12/19 03:01:13;;;;;;;20.13;14.98;;;;;;;2.63;96.19;101762.03;4916131;29;20409;-69
2023/12/19 03:04:27;;;;;;;20.95;14.95;;;;;;;2.66;95.89;101762.03;4917302;29;20533;-68
2023/12/19 03:07:39;;;;;;;16.70;13.95;;;;;;;2.72;95.29;101755.16;4916801;29;20051;-68
2023/12/19 03:11:06;;;;;;;17.40;13.75;;;;;;;2.91;94.37;101743.09;4906945;29;20099;-68
2023/12/19 03:14:10;;;;;;;19.85;14.95;;;;;;;2.59;94.31;101732.78;4905401;29;20068;-68
2023/12/19 03:17:13;;;;;;;17.52;14.00;;;;;;;2.64;94.44;101730.19;4916981;29;20066;-68
2023/12/19 03:20:16;;;;;;;16.38;13.05;;;;;;;2.70;94.59;101732.75;4916945;29;20458;-68
2023/12/19 03:23:21;;;;;;;20.33;15.45;;;;;;;2.77;93.51;101740.50;4917086;29;20043;-68
2023/12/19 03:26:24;;;;;;;20.33;14.70;;;;;;;2.76;93.20;101738.78;4916748;29;20504;-68
2023/12/19 03:29:28;;;;;;;17.17;13.02;;;;;;;2.85;93.60;101734.47;4916729;29;20438;-68
2023/12/19 03:32:31;;;;;;;17.00;12.93;;;;;;;2.86;93.42;101734.47;4916802;29;20046;-68
2023/12/19 03:35:34;;;;;;;;;;;;;;;2.66;94.05;101733.63;4917088;29;20043;-68
2023/12/19 03:38:37;;;;;;;17.17;12.77;;;;;;;2.72;94.54;101743.97;4916923;29;19922;-68
2023/12/19 03:41:41;;;;;;;16.05;12.18;;;;;;;2.59;95.07;101740.53;4916230;29;20044;-69
2023/12/19 03:44:44;;;;;;;16.27;12.18;;;;;;;2.60;94.70;101739.66;4916560;29;20470;-68
2023/12/19 03:47:47;;;;;;;15.75;12.23;;;;;;;2.67;94.56;101732.75;4916595;29;20087;-68
2023/12/19 03:50:50;;;;;;;15.32;11.93;;;;;;;2.95;93.54;101718.09;4916540;29;20064;-68
2023/12/19 03:53:54;;;;;;;18.48;13.10;;;;;;;2.87;92.56;101714.66;4916597;29;20082;-68
2023/12/19 03:56:57;;;;;;;13.98;11.70;;;;;;;2.88;92.57;101713.81;4916567;29;20046;-69
2023/12/19 04:00:00;;;;;;;;;;;;;;;2.88;92.22;101716.41;4916041;29;20043;-69
2023/12/19 04:03:04;;;;;;;15.73;11.63;;;;;;;2.78;93.47;101715.56;4916514;29;19921;-69
2023/12/19 04:06:07;;;;;;;15.35;11.45;;;;;;;2.54;93.96;101706.94;4916347;29;20051;-69
2023/12/19 04:09:11;;;;;;;13.95;11.25;;;;;;;2.60;94.08;101703.50;4916551;29;20105;-68
2023/12/19 04:12:14;;;;;;;15.80;11.23;;;;;;;2.61;94.74;101697.47;4916637;29;20128;-68
2023/12/19 04:15:17;;;;;;;;;;;;;;;2.78;94.19;101690.56;4916743;29;20051;-68
2023/12/19 04:18:20;;;;;;;13.63;10.35;;;;;;;2.75;94.02;101684.56;4916611;29;19922;-68
2023/12/19 04:21:24;;;;;;;12.80;10.93;;;;;;;2.79;94.38;101686.25;4916333;29;20078;-68
2023/12/19 04:24:28;;;;;;;;;;;;;;;2.73;92.42;101681.97;4916694;29;20047;-68
2023/12/19 04:27:31;;;;;;;12.25;9.57;;;;;;;2.76;92.87;101691.44;4916238;29;19969;-68
2023/12/19 04:30:34;;;;;;;11.90;9.10;;;;;;;2.85;92.33;101686.25;4915998;29;20055;-69
2023/12/19 04:33:37;;;;;;;10.48;8.70;;;;;;;2.82;92.09;101677.66;4916239;29;20048;-68
2023/12/19 04:36:41;;;;;;;11.35;8.95;;;;;;;2.66;93.11;101681.97;4916177;29;20156;-68
2023/12/19 04:39:45;;;;;;;12.00;8.35;;;;;;;2.52;94.45;101682.88;4915946;29;20147;-68
2023/12/19 04:42:48;;;;;;;11.60;9.45;;;;;;;2.45;94.66;101694.03;4915768;29;20076;-68
2023/12/19 04:45:51;;;;;;;11.50;8.30;;;;;;;2.55;94.83;101698.34;4913633;29;20060;-68
2023/12/19 04:48:56;;;;;;;10.75;8.93;;;;;;;2.60;95.19;101682.84;4910264;29;20054;-68
2023/12/19 04:52:00;;;;;;;10.15;7.75;;;;;;;2.73;94.17;101692.28;4905608;29;20107;-68
2023/12/19 04:55:04;;;;;;;10.07;7.60;;;;;;;2.79;93.92;101694.88;4907698;29;20059;-68
2023/12/19 04:58:07;;;;;;;10.88;8.43;;;;;;;2.76;93.97;101694.03;4903253;29;20047;-68
2023/12/19 05:01:11;;;;;;;;;;;;;;;2.70;94.66;101701.78;4900905;29;20171;-69
2023/12/19 05:04:14;;;;;;;10.90;8.30;;;;;;;2.60;95.70;101689.75;4900551;29;19938;-69
2023/12/19 05:07:20;;;;;;;10.43;8.70;;;;;;;2.39;98.14;101704.34;4900092;29;20108;-70
2023/12/19 05:10:24;;;;;;;12.75;8.52;;;;;;;2.38;98.77;101705.22;4900225;29;20047;-69
2023/12/19 05:13:27;;;;;;;11.25;7.93;;;;;;;2.42;98.92;101701.78;4900259;29;20051;-69
2023/12/19 05:16:30;;;;;;;9.45;7.93;;;;;;;2.42;98.78;101688.00;4900176;29;20557;-69
2023/12/19 05:19:34;;;;;;;10.95;8.43;;;;;;;2.37;99.61;101687.16;4900184;29;20047;-69
2023/12/19 05:22:37;;;;;;;20.60;17.42;;;;;;;2.48;99.09;101668.22;4900110;29;20112;-69
2023/12/19 05:25:41;;;;;;;11.13;7.95;;;;;;;2.40;99.97;101659.63;4905728;29;20040;-69
2023/12/19 05:28:45;;;;;;;9.68;8.35;;;;;;;2.45;99.45;101657.88;4910549;29;20104;-69
2023/12/19 05:31:48;;;;;;;10.95;7.18;;;;;;;2.52;98.20;101651.88;4909234;29;20059;-69
2023/12/19 05:34:52;;;;;;;10.55;9.15;;;;;;;2.54;98.38;101650.13;4909603;29;20095;-69
2023/12/19 05:48:50;;;;;;;10.20;7.35;;;;;;;2.57;98.09;101654.44;5110236;27;20384;-74
2023/12/19 05:51:53;;;;;;;8.88;7.70;;;;;;;2.82;97.18;101647.53;5110408;28;20043;-74
2023/12/19 05:54:56;;;;;;;8.98;7.00;;;;;;;2.86;96.22;101645.78;5110406;28;20099;-74
2023/12/19 05:58:00;;;;;;;8.23;5.90;;;;;;;2.78;96.32;101643.22;5110386;28;20116;-74
2023/12/19 06:01:03;;;;;;;8.65;6.65;;;;;;;2.86;95.76;101635.44;5110361;28;20535;-74
2023/12/19 06:04:06;;;;;;;11.45;6.93;;;;;;;2.72;95.73;101646.69;5110316;28;20089;-74
2023/12/19 06:07:09;;;;;;;9.90;6.28;;;;;;;2.70;96.29;101639.78;5110533;28;20088;-74
2023/12/19 06:10:13;;;;;;;;;;;;;;;2.72;96.29;101644.09;5109721;28;20123;-74
2023/12/19 06:13:17;;;;;;;9.55;5.97;;;;;;;2.71;96.85;101636.34;5110111;28;19919;-74
2023/12/19 06:16:39;;;;;;;8.18;6.35;;;;;;;2.86;95.67;101640.63;5109945;28;20046;-74
2023/12/19 06:19:42;;;;;;;8.80;6.50;;;;;;;2.79;95.90;101629.44;5109515;28;20078;-75
2023/12/19 06:22:45;;;;;;;8.75;6.50;;;;;;;2.94;94.90;101634.56;5107802;28;20070;-75
2023/12/19 06:25:49;;;;;;;7.50;5.80;;;;;;;2.83;94.89;101646.66;5108198;28;20054;-75
2023/12/19 06:28:55;;;;;;;8.63;5.88;;;;;;;2.90;94.71;101647.50;5107617;28;20047;-75
2023/12/19 06:31:59;;;;;;;8.10;6.20;;;;;;;2.84;95.17;101638.06;5109483;28;20046;-74
2023/12/19 06:35:06;;;;;;;8.57;6.28;;;;;;;2.88;94.58;101639.75;5109045;28;20560;-75
2023/12/19 06:38:10;;;;;;;7.60;5.75;;;;;;;2.94;94.51;101632.00;5109343;28;20122;-76
2023/12/19 06:41:17;;;;;;;;;;;;;;;2.86;94.56;101612.19;5109939;28;20145;-75
2023/12/19 06:44:22;;;;;;;11.15;7.28;;;;;;;2.96;94.68;101604.41;5108897;28;20329;-75
2023/12/19 06:47:28;;;;;;;8.48;6.40;;;;;;;2.85;94.63;101598.44;5109006;28;20086;-75
2023/12/19 06:50:31;;;;;;;9.05;6.80;;;;;;;2.97;94.00;101598.41;5095776;28;20527;-75
2023/12/19 06:53:35;;;;;;;10.80;7.80;;;;;;;2.99;93.83;101590.63;5095842;28;20117;-73
2023/12/19 06:56:39;;;;;;;8.88;5.68;;;;;;;2.92;94.35;101592.38;5095645;28;20047;-73
2023/12/19 06:59:45;;;;;;;25.65;16.70;;;;;;;2.92;94.13;101578.59;5095863;28;20051;-73
2023/12/19 07:02:50;;;;;;;9.60;6.07;;;;;;;2.82;94.77;101564.00;5095558;28;20071;-74
2023/12/19 07:05:53;;;;;;;6.85;4.45;;;;;;;2.96;94.33;101563.06;5095468;28;20042;-74
2023/12/19 07:08:56;;;;;;;6.72;5.43;;;;;;;2.85;94.82;101554.53;5095778;28;20443;-73
2023/12/19 07:12:00;;;;;;;5.57;4.30;;;;;;;2.88;94.46;101545.91;5095307;28;20569;-73
2023/12/19 07:15:04;;;;;;;;;;;;;;;3.09;94.42;101560.44;5094892;28;20131;-73
2023/12/19 07:18:07;;;;;;;7.60;4.78;;;;;;;2.98;94.58;101569.09;5092902;28;19922;-73
2023/12/19 07:21:24;;;;;;;6.55;4.63;;;;;;;3.14;93.79;101580.22;5094427;28;20459;-72
2023/12/19 07:24:28;;;;;;;5.57;4.20;;;;;;;3.00;94.16;101582.88;5094861;28;20413;-74
2023/12/19 07:27:34;;;;;;;8.13;4.65;;;;;;;2.86;94.71;101573.47;5094966;28;20059;-74
2023/12/19 07:30:38;;;;;;;6.38;4.88;;;;;;;2.92;94.51;101581.19;5094757;28;20096;-74
2023/12/19 07:33:41;;;;;;;7.97;4.60;;;;;;;3.01;94.76;101584.59;5094164;28;20055;-74
2023/12/19 07:36:45;;;;;;;8.00;4.47;;;;;;;2.79;95.01;101588.97;5094043;28;20047;-73
2023/12/19 07:39:49;;;;;;;10.05;4.75;;;;;;;2.77;95.31;101587.25;5093309;28;20122;-73
2023/12/19 07:42:52;;;;;;;;;;;;;;;2.89;95.65;101586.34;5094400;28;20051;-73
2023/12/19 07:45:55;;;;;;;6.70;5.15;;;;;;;2.96;95.17;101581.16;5093778;28;19919;-75
2023/12/19 07:48:58;;;;;;;9.13;6.03;;;;;;;2.93;95.44;101586.31;5093856;28;20082;-75
2023/12/19 07:52:04;;;;;;;8.63;5.97;;;;;;;2.91;95.66;101582.06;5093689;28;20070;-76
2023/12/19 07:55:10;;;;;;;9.77;6.28;;;;;;;2.89;95.69;101589.81;5093672;28;20101;-76
2023/12/19 07:58:13;;;;;;;10.48;6.82;;;;;;;2.95;95.01;101576.84;5093359;28;20554;-76
2023/12/19 08:01:20;;;;;;;7.78;5.18;;;;;;;3.09;94.86;101575.94;5092825;28;20425;-77
2023/12/19 08:04:23;;;;;;;8.90;4.95;;;;;;;3.11;94.20;101571.63;5093318;28;20055;-77
2023/12/19 08:07:27;;;;;;;7.70;4.68;;;;;;;2.93;94.66;101570.81;5076234;28;20044;-74
2023/12/19 08:10:30;;;;;;;7.63;5.10;;;;;;;2.97;94.93;101562.22;5071734;28;20465;-73
2023/12/19 08:13:36;;;;;;;;;;;;;;;2.94;95.52;101551.91;5073375;28;20563;-73
2023/12/19 08:16:39;;;;;;;7.25;4.57;;;;;;;3.08;94.89;101551.81;5073035;28;19994;-74
2023/12/19 08:19:43;;;;;;;;;;;;;;;3.20;94.57;101558.66;5073468;28;20088;-74
2023/12/19 08:22:46;;;;;;;7.72;5.43;;;;;;;3.19;94.81;101555.22;5072874;28;19923;-76
2023/12/19 08:25:49;;;;;;;5.60;4.03;;;;;;;3.05;94.97;101538.06;5072869;28;20044;-76
2023/12/19 08:28:52;;;;;;;7.25;4.60;;;;;;;3.05;95.45;101544.09;5072846;28;20082;-76
2023/12/19 08:31:56;;;;;;;6.95;3.90;;;;;;;3.00;95.89;101541.53;5072786;28;20447;-75
2023/12/19 08:34:59;;;;;;;6.97;4.68;;;;;;;3.17;95.69;101553.50;5072812;28;20052;-77
2023/12/19 08:38:03;;;;;;;4.90;3.55;;;;;;;3.16;94.94;101541.44;5072574;28;20081;-78
2023/12/19 08:41:06;;;;;;;7.22;4.03;;;;;;;3.12;95.29;101534.56;5072642;28;20422;-78
2023/12/19 08:44:09;;;;;;;5.30;3.38;;;;;;;3.09;95.92;101521.66;5072481;28;20074;-78
2023/12/19 08:47:15;;;;;;;;;;;;;;;3.09;96.10;101519.09;5079488;28;20051;-78
2023/12/19 08:50:19;;;;;;;5.18;3.38;;;;;;;3.15;96.24;101503.56;5072522;28;19930;-78
2023/12/19 08:53:22;;;;;;;;;;;;;;;3.20;95.97;101501.81;5073887;28;20096;-75
2023/12/19 08:56:25;;;;;;;5.90;3.67;;;;;;;3.30;95.81;101507.78;5083692;28;19918;-75
2023/12/19 08:59:31;;;;;;;9.32;5.35;;;;;;;3.26;95.62;101512.13;5088866;28;20561;-75
2023/12/19 09:02:35;;;;;;;4.60;3.33;;;;;;;3.23;95.72;101517.28;5090700;28;20100;-75
2023/12/19 09:05:38;;;;;;;;;;;;;;;3.24;95.77;101524.19;5083245;28;20417;-76
2023/12/19 09:08:42;;;;;;;4.32;3.17;;;;;;;3.44;94.87;101524.03;5082623;28;19946;-76
2023/12/19 09:11:58;;;;;;;4.55;2.78;;;;;;;3.48;93.95;101511.09;5081091;28;20046;-77
2023/12/19 09:19:21;;;;;;;4.95;3.50;;;;;;;3.57;93.29;101507.56;5083307;28;20086;-77
2023/12/19 09:22:26;;;;;;;4.85;3.42;;;;;;;3.59;93.98;101494.63;5084748;28;20107;-78
2023/12/19 09:25:29;;;;;;;4.90;3.13;;;;;;;3.58;93.73;101511.03;5090895;28;20096;-77
2023/12/19 09:28:33;;;;;;;3.17;2.30;;;;;;;3.51;93.86;101497.28;5085925;28;20097;-78
2023/12/19 09:31:36;;;;;;;5.10;3.15;;;;;;;3.51;93.93;101479.19;5082806;28;20051;-77
2023/12/19 09:34:40;;;;;;;;;;;;;;;3.54;93.61;101465.34;5082151;28;20089;-77
2023/12/19 09:37:44;;;;;;;5.75;3.17;;;;;;;3.58;93.94;101478.25;5090248;28;19945;-78
2023/12/19 09:40:48;;;;;;;4.75;2.90;;;;;;;3.57;93.55;101461.00;5083896;28;20043;-77
2023/12/19 09:43:51;;;;;;;4.18;2.85;;;;;;;3.48;93.66;101450.78;5088462;28;20043;-77
2023/12/19 09:46:55;;;;;;;3.78;2.55;;;;;;;3.52;93.80;101438.69;5084034;28;20105;-77
2023/12/19 09:50:01;;;;;;;5.22;3.72;;;;;;;3.55;93.93;101431.75;5085931;28;20070;-77
2023/12/19 09:53:07;;;;;;;5.97;3.25;;;;;;;3.78;93.16;101422.91;5082477;28;20097;-77
2023/12/19 09:56:11;;;;;;;5.07;3.58;;;;;;;3.67;93.07;101431.63;5083312;28;20035;-77
2023/12/19 09:59:19;;;;;;;5.60;3.63;;;;;;;3.95;91.95;101445.13;5082103;28;20043;-76
2023/12/19 10:02:26;;;;;;;6.63;2.60;;;;;;;4.01;91.65;101443.38;5085422;28;20082;-77
2023/12/19 10:05:29;;;;;;;7.03;3.15;;;;;;;3.85;92.09;101440.94;5084017;28;20470;-77
2023/12/19 10:08:33;;;;;;;3.65;2.25;;;;;;;3.83;92.54;101432.34;5084822;28;20043;-77
2023/12/19 10:11:38;;;;;;;3.63;2.20;;;;;;;3.83;92.51;101437.53;5086937;28;20038;-77
2023/12/19 10:14:41;;;;;;;3.22;2.28;;;;;;;3.89;92.49;101428.81;5081129;28;20105;-77
2023/12/19 10:18:08;;;;;;;3.47;2.17;;;;;;;3.92;92.43;101408.09;5082584;28;20084;-76
2023/12/19 10:21:15;;;;;;;3.10;1.80;;;;;;;3.91;92.53;101409.81;5076990;28;20460;-76
2023/12/19 10:24:25;;;;;;;5.20;2.22;;;;;;;3.82;92.71;101425.44;5083134;28;20101;-76
2023/12/19 10:27:28;;;;;;;6.82;4.60;;;;;;;3.83;92.64;101437.53;5086936;28;20052;-76
2023/12/19 10:30:32;;;;;;;5.20;2.78;;;;;;;3.81;92.87;101428.91;5088991;28;20141;-76
2023/12/19 10:33:41;;;;;;;9.00;5.45;;;;;;;3.86;92.54;101411.63;5085655;28;20114;-76
2023/12/19 10:36:44;;;;;;;5.85;3.28;;;;;;;3.87;92.75;101409.88;5089871;28;20082;-76
2023/12/19 10:39:48;;;;;;;6.03;3.03;;;;;;;3.94;92.58;101393.41;5090107;28;20109;-76
2023/12/19 10:42:55;;;;;;;;;;;;;;;4.10;91.58;101388.91;5085578;28;20588;-76
2023/12/19 10:45:59;;;;;;;5.43;2.40;;;;;;;4.17;91.40;101390.56;5086140;28;20299;-76
2023/12/19 10:49:04;;;;;;;5.55;2.95;;;;;;;4.07;91.42;101394.97;5038642;28;20412;-76
2023/12/19 10:52:12;;;;;;;3.47;1.65;;;;;;;4.15;91.21;101387.16;5040842;28;20048;-76
2023/12/19 10:55:21;;;;;;;4.88;1.77;;;;;;;4.05;92.39;101377.75;5037163;28;20044;-76
2023/12/19 10:58:25;;;;;;;4.35;2.28;;;;;;;4.22;91.80;101368.06;5036040;28;20512;-76
2023/12/19 11:01:32;;;;;;;;;;;;;;;4.25;91.24;101354.25;5037473;28;20044;-76
2023/12/19 11:04:40;;;;;;;4.32;1.45;;;;;;;4.41;91.26;101335.88;5038898;28;19920;-76
2023/12/19 11:07:46;;;;;;;3.85;1.52;;;;;;;4.37;91.13;101316.09;5036909;28;20146;-77
2023/12/19 11:11:10;;;;;;;3.85;1.58;;;;;;;4.56;90.61;101305.44;5045946;28;20062;-76
2023/12/19 11:14:15;;;;;;;8.15;3.03;;;;;;;4.63;90.30;101301.91;5042807;28;20069;-76
2023/12/19 11:17:30;;;;;;;3.53;1.98;;;;;;;4.72;90.73;101300.88;5038391;28;20047;-76
2023/12/19 11:20:40;;;;;;;3.10;1.80;;;;;;;4.57;90.82;101297.66;5040061;28;20063;-76
2023/12/19 11:24:11;;;;;;;4.38;1.73;;;;;;;4.67;90.82;101290.63;5035163;28;20713;-76
2023/12/19 11:27:21;;;;;;;3.95;1.70;;;;;;;4.80;90.88;101284.34;5042841;28;20409;-76
2023/12/19 11:30:40;;;;;;;4.70;1.75;;;;;;;4.92;89.93;101272.09;5037839;28;20126;-76
2023/12/19 11:33:43;;;;;;;3.78;1.90;;;;;;;4.97;89.94;101273.69;5037159;28;20049;-77
2023/12/19 11:36:47;;;;;;;4.68;2.40;;;;;;;4.82;90.43;101272.25;5034545;28;20087;-77
2023/12/19 11:39:50;;;;;;;;;;;;;;;4.84;91.21;101247.13;5028826;28;20111;-76
2023/12/19 11:42:53;;;;;;;4.70;2.00;;;;;;;4.79;91.76;101272.28;5043414;28;19923;-77
2023/12/19 11:46:15;;;;;;;4.30;2.30;;;;;;;4.83;91.70;101237.66;5041052;28;20406;-77
2023/12/19 11:49:36;;;;;;;7.72;3.60;;;;;;;4.80;92.06;101248.06;5035852;28;20060;-76
2023/12/19 11:52:42;;;;;;;4.15;2.28;;;;;;;4.88;92.21;101251.41;5034539;28;20088;-76
2023/12/19 11:55:46;;;;;;;4.63;2.17;;;;;;;5.11;91.47;101245.81;5038948;28;20521;-76
2023/12/19 11:58:51;;;;;;;4.38;3.03;;;;;;;5.03;91.43;101239.03;5040952;28;20061;-76
2023/12/19 12:01:54;;;;;;;3.70;1.75;;;;;;;5.01;92.31;101238.22;5036384;28;20115;-76
2023/12/19 12:05:08;;;;;;;;;;;;;;;5.04;91.71;101230.38;5038646;28;20465;-76
2023/12/19 12:08:12;;;;;;;4.50;1.63;;;;;;;5.18;91.92;101210.25;5039351;28;20036;-76
2023/12/19 12:11:16;;;;;;;4.18;2.20;;;;;;;5.27;91.71;101209.22;5039444;28;20423;-77
2023/12/19 12:14:21;;;;;;;4.32;2.92;;;;;;;5.34;91.07;101190.06;5040034;28;20045;-76
2023/12/19 12:17:24;;;;;;;7.75;3.67;;;;;;;5.29;91.07;101177.19;5034394;28;20036;-76
2023/12/19 12:20:32;;;;;;;;;;;;;;;5.41;91.55;101181.28;5041595;28;20143;-76
2023/12/19 12:23:35;;;;;;;2.80;1.60;;;;;;;5.47;91.09;101178.56;5038197;28;19959;-76
2023/12/19 12:26:42;;;;;;;3.85;2.63;;;;;;;5.48;90.83;101171.63;5038272;28;20537;-73
2023/12/19 12:29:47;;;;;;;3.55;1.80;;;;;;;5.68;91.93;101159.09;5043093;28;20068;-72
2023/12/19 12:32:53;;;;;;;6.63;4.05;;;;;;;5.94;90.49;101147.31;5039081;28;20076;-72
2023/12/19 12:35:57;;;;;;;5.05;3.05;;;;;;;6.09;89.70;101148.69;5035859;28;20056;-71
2023/12/19 12:39:01;;;;;;;3.53;1.30;;;;;;;6.12;89.40;101146.84;5039090;28;20091;-72
2023/12/19 12:42:07;;;;;;;3.47;1.98;;;;;;;6.10;88.73;101143.47;5041761;28;20458;-72
2023/12/19 12:45:19;;;;;;;5.22;2.80;;;;;;;6.27;88.08;101141.28;5040464;28;20178;-72
2023/12/19 12:48:36;;;;;;;6.18;3.67;;;;;;;6.35;87.07;101122.94;5075877;28;20118;-72
2023/12/19 12:51:39;;;;;;;3.15;1.60;;;;;;;6.38;86.58;101116.78;5085689;28;20093;-72
2023/12/19 12:54:43;;;;;;;;;;;;;;;6.41;86.47;101106.31;5085530;28;20047;-73
2023/12/19 12:57:59;;;;;;;4.47;2.15;;;;;;;6.17;87.48;101107.81;5087404;28;20422;-76
2023/12/19 13:01:03;;;;;;;3.95;2.85;;;;;;;6.22;88.19;101096.44;5090326;28;20039;-78
2023/12/19 13:04:10;;;;;;;7.53;6.03;;;;;;;6.05;88.53;101094.22;5083493;28;20458;-74
2023/12/19 13:07:13;;;;;;;3.72;2.80;;;;;;;6.04;89.65;101089.09;5082739;28;20055;-74
2023/12/19 13:10:16;;;;;;;3.67;2.20;;;;;;;6.15;88.90;101074.06;5084928;28;20055;-73
2023/12/19 13:13:20;;;;;;;;;;;;;;;6.11;89.59;101067.28;5086892;28;20132;-74
2023/12/19 13:16:23;;;;;;;4.18;2.22;;;;;;;6.02;90.39;101070.94;5082865;28;19919;-74
2023/12/19 13:19:27;;;;;;;;;;;;;;;6.06;90.65;101074.31;5083741;28;20575;-74
2023/12/19 13:22:32;;;;;;;3.15;1.30;;;;;;;5.98;91.42;101060.69;5083987;28;19965;-74
2023/12/19 13:25:36;;;;;;;;;;;;;;;6.01;91.72;101052.81;5084497;28;20139;-75
2023/12/19 13:28:39;;;;;;;3.42;1.50;;;;;;;5.89;91.94;101056.53;5083442;28;20388;-74
2023/12/19 13:31:42;;;;;;;3.42;1.90;;;;;;;5.93;92.23;101049.53;5083460;28;20816;-77
2023/12/19 13:34:46;;;;;;;;;;;;;;;5.94;92.60;101043.47;5082410;28;20424;-74
2023/12/19 13:37:49;;;;;;;3.73;1.77;;;;;;;5.92;92.62;101056.44;5082293;28;19976;-73
2023/12/19 13:40:52;;;;;;;2.92;1.67;;;;;;;5.93;92.94;101046.94;5088649;28;20515;-73
2023/12/19 13:43:56;;;;;;;3.95;1.98;;;;;;;5.87;92.75;101026.31;5082000;28;20503;-74
2023/12/19 13:47:18;;;;;;;4.35;1.90;;;;;;;5.85;93.34;101035.88;5081935;28;20056;-76
2023/12/19 13:50:31;;;;;;;3.53;1.67;;;;;;;5.84;93.71;101035.03;5080421;28;20103;-77
2023/12/19 13:53:36;;;;;;;3.83;1.63;;;;;;;5.93;93.46;101028.78;5082008;28;20785;-77
2023/12/19 13:56:39;;;;;;;5.50;2.60;;;;;;;6.06;92.71;101024.97;5080235;28;20101;-76
2023/12/19 13:59:44;;;;;;;3.75;1.92;;;;;;;5.94;92.82;101027.91;5084367;28;20051;-76
2023/12/19 14:02:47;;;;;;;2.75;1.52;;;;;;;5.99;92.78;101026.03;5083539;28;20097;-76
2023/12/19 14:05:50;;;;;;;3.78;1.92;;;;;;;5.91;93.13;101025.34;5082178;28;20047;-76
2023/12/19 14:08:54;;;;;;;4.65;1.75;;;;;;;5.85;92.55;101022.91;5085304;28;20119;-77
2023/12/19 14:11:57;;;;;;;;;;;;;;;5.87;92.79;101019.41;5083112;28;20042;-77
2023/12/19 14:15:03;;;;;;;3.85;2.22;;;;;;;5.70;94.46;101024.97;5085585;28;19919;-77
2023/12/19 14:18:06;;;;;;;4.35;2.00;;;;;;;5.74;93.64;101013.66;5085514;28;20036;-77
2023/12/19 14:21:10;;;;;;;7.50;3.85;;;;;;;5.67;95.20;101022.44;5089185;28;20109;-77
2023/12/19 14:24:14;;;;;;;6.07;3.28;;;;;;;5.68;95.07;101006.03;5080793;28;20047;-77
2023/12/19 14:27:21;;;;;;;4.65;3.10;;;;;;;5.66;95.73;101009.53;5083414;28;20102;-77
2023/12/19 14:30:26;;;;;;;4.63;3.08;;;;;;;5.70;95.42;101018.94;5073611;28;20102;-77
2023/12/19 14:33:29;;;;;;;;;;;;;;;5.73;95.26;101018.88;5085831;28;20092;-77
2023/12/19 14:36:32;;;;;;;6.95;3.47;;;;;;;5.61;95.38;101004.44;5083941;28;19935;-77
2023/12/19 14:39:40;;;;;;;6.40;3.58;;;;;;;5.56;95.63;100995.94;5090043;28;20043;-77
2023/12/19 14:42:43;;;;;;;8.50;5.70;;;;;;;5.40;97.21;100999.78;5087455;28;20047;-77
2023/12/19 14:45:49;;;;;;;5.63;3.15;;;;;;;5.41;97.35;100985.91;5090364;28;20060;-77
2023/12/19 14:48:53;;;;;;;6.60;4.13;;;;;;;5.50;97.37;100990.88;5084833;28;20047;-76
2023/12/19 14:51:57;;;;;;;6.55;3.25;;;;;;;5.30;98.11;100984.44;5084586;28;20704;-76
2023/12/19 14:55:00;;;;;;;;;;;;;;;5.39;99.63;100993.72;5084798;28;20061;-76